createdAt,value
2023-02-15T00:00:27.536Z,20.13
2023-02-15T00:02:58.381Z,19.02
2023-02-15T00:05:30.401Z,18.13
2023-02-15T00:07:57.274Z,17.15
2023-02-15T00:10:25.176Z,17.70
2023-02-15T00:12:52.143Z,17.63
2023-02-15T00:15:19.066Z,17.15
2023-02-15T00:17:46.242Z,16.00
2023-02-15T00:22:40.140Z,17.13
2023-02-15T00:25:09.342Z,18.13
2023-02-15T00:27:36.332Z,17.55
2023-02-15T00:30:03.617Z,17.83
2023-02-15T00:32:30.755Z,17.27
2023-02-15T00:34:57.786Z,18.38
2023-02-15T00:37:25.112Z,17.88
2023-02-15T00:39:54.052Z,19.60
2023-02-15T00:42:21.283Z,19.60
2023-02-15T00:44:48.421Z,18.52
2023-02-15T00:47:17.889Z,19.52
2023-02-15T00:49:44.795Z,19.45
2023-02-15T00:52:11.697Z,20.50
2023-02-15T00:54:39.768Z,20.63
2023-02-15T00:57:06.743Z,20.77
2023-02-15T00:59:33.777Z,20.05
2023-02-15T01:02:01.255Z,21.40
2023-02-15T01:04:30.186Z,19.77
2023-02-15T01:06:57.840Z,19.65
2023-02-15T01:09:24.833Z,20.00
2023-02-15T01:11:51.734Z,19.85
2023-02-15T01:14:20.413Z,19.90
2023-02-15T01:16:47.617Z,20.33
2023-02-15T01:21:41.931Z,20.65
2023-02-15T01:24:16.738Z,20.48
2023-02-15T01:26:46.526Z,21.63
2023-02-15T01:29:13.566Z,19.73
2023-02-15T01:31:43.238Z,19.00
2023-02-15T01:34:10.757Z,20.50
2023-02-15T01:36:39.292Z,20.42
2023-02-15T01:39:08.942Z,20.25
2023-02-15T01:41:35.909Z,19.08
2023-02-15T01:44:06.615Z,22.10
2023-02-15T01:46:41.200Z,20.13
2023-02-15T01:49:19.754Z,21.83
2023-02-15T01:51:49.434Z,19.02
2023-02-15T01:54:25.822Z,19.30
2023-02-15T01:56:56.130Z,18.20
2023-02-15T01:59:27.413Z,18.98
2023-02-15T02:01:59.299Z,18.65
2023-02-15T02:04:48.120Z,19.95
2023-02-15T02:07:18.227Z,21.02
2023-02-15T02:09:46.518Z,20.23
2023-02-15T02:12:14.184Z,18.63
2023-02-15T02:14:44.589Z,19.52
2023-02-15T02:17:31.426Z,19.70
2023-02-15T02:23:31.826Z,18.55
2023-02-15T02:26:26.834Z,18.88
2023-02-15T02:29:12.481Z,18.02
2023-02-15T02:31:58.216Z,17.25
2023-02-15T02:34:30.932Z,19.25
2023-02-15T02:37:13.223Z,19.65
2023-02-15T02:39:43.174Z,20.13
2023-02-15T02:42:13.120Z,20.48
2023-02-15T02:45:10.326Z,19.30
2023-02-15T02:47:45.026Z,20.20
2023-02-15T02:50:22.563Z,20.33
2023-02-15T02:52:52.075Z,20.95
2023-02-15T02:55:24.314Z,20.85
2023-02-15T02:57:54.370Z,21.98
2023-02-15T03:00:24.973Z,22.48
2023-02-15T03:03:27.713Z,21.52
2023-02-15T03:06:03.134Z,20.38
2023-02-15T03:08:39.408Z,19.90
2023-02-15T03:11:07.128Z,19.00
2023-02-15T03:13:37.066Z,18.92
2023-02-15T03:16:26.719Z,19.33
2023-02-15T03:19:01.332Z,17.95
2023-02-15T03:22:04.740Z,18.17
2023-02-15T03:25:00.129Z,17.45
2023-02-15T03:27:37.374Z,20.48
2023-02-15T03:30:07.013Z,19.52
2023-02-15T03:32:36.149Z,18.40
2023-02-15T03:35:04.722Z,20.27
2023-02-15T03:37:48.248Z,21.02
2023-02-15T03:40:41.259Z,21.00
2023-02-15T03:43:38.056Z,21.67
2023-02-15T03:46:29.349Z,19.58
2023-02-15T03:49:12.591Z,20.20
2023-02-15T03:51:43.908Z,20.65
2023-02-15T03:54:37.990Z,20.23
2023-02-15T03:57:24.773Z,19.17
2023-02-15T04:02:53.750Z,19.30
2023-02-15T04:05:43.862Z,21.25
2023-02-15T04:11:17.282Z,21.85
2023-02-15T04:13:44.346Z,23.63
2023-02-15T04:16:14.678Z,24.08
2023-02-15T04:19:02.175Z,23.42
2023-02-15T04:21:50.031Z,23.60
2023-02-15T04:27:07.026Z,21.80
2023-02-15T04:29:34.039Z,22.13
2023-02-15T04:32:02.596Z,22.38
2023-02-15T04:34:29.621Z,23.35
2023-02-15T04:36:56.673Z,24.27
2023-02-15T04:39:23.699Z,22.90
2023-02-15T04:41:50.874Z,21.58
2023-02-15T04:51:41.021Z,20.20
2023-02-15T04:54:08.054Z,20.98
2023-02-15T04:56:38.739Z,20.60
2023-02-15T04:59:08.466Z,21.95
2023-02-15T05:01:35.650Z,23.05
2023-02-15T05:06:30.065Z,20.67
2023-02-15T05:08:59.961Z,19.30
2023-02-15T05:11:27.604Z,20.48
2023-02-15T05:13:54.598Z,20.77
2023-02-15T05:16:21.572Z,20.15
2023-02-15T05:18:48.444Z,19.50
2023-02-15T05:23:58.493Z,20.08
2023-02-15T05:29:12.852Z,19.00
2023-02-15T05:31:40.244Z,20.20
2023-02-15T05:34:09.238Z,21.15
2023-02-15T05:36:36.339Z,20.98
2023-02-15T05:39:05.088Z,19.75
2023-02-15T05:41:35.200Z,20.95
2023-02-15T05:44:02.709Z,19.48
2023-02-15T05:46:30.081Z,22.45
2023-02-15T05:48:57.026Z,21.95
2023-02-15T05:51:26.506Z,21.75
2023-02-15T05:53:53.511Z,21.27
2023-02-15T05:56:22.966Z,19.98
2023-02-15T05:58:53.713Z,23.10
2023-02-15T06:01:23.738Z,24.08
2023-02-15T06:03:53.424Z,27.13
2023-02-15T06:06:22.503Z,28.17
2023-02-15T06:08:49.675Z,33.17
2023-02-15T06:13:44.114Z,22.05
2023-02-15T06:18:44.198Z,26.55
2023-02-15T06:21:11.542Z,24.77
2023-02-15T06:23:38.939Z,24.50
2023-02-15T06:26:06.165Z,22.08
2023-02-15T06:33:26.745Z,25.05
2023-02-15T06:35:53.650Z,22.75
2023-02-15T06:38:20.559Z,22.95
2023-02-15T06:40:50.572Z,22.95
2023-02-15T06:43:18.076Z,22.65
2023-02-15T06:45:45.072Z,23.48
2023-02-15T06:48:12.207Z,22.58
2023-02-15T06:53:08.612Z,20.85
2023-02-15T07:00:29.273Z,16.17
2023-02-15T07:03:00.220Z,18.90
2023-02-15T07:05:32.407Z,19.27
2023-02-15T07:08:00.207Z,19.27
2023-02-15T07:10:27.863Z,20.85
2023-02-15T07:12:57.320Z,20.75
2023-02-15T07:15:24.459Z,19.75
2023-02-15T07:22:47.056Z,19.60
2023-02-15T07:25:17.062Z,22.50
2023-02-15T07:27:45.656Z,26.85
2023-02-15T07:30:16.396Z,21.23
2023-02-15T07:33:05.548Z,21.90
2023-02-15T07:35:33.403Z,20.95
2023-02-15T07:38:03.060Z,19.42
2023-02-15T07:40:32.473Z,21.60
2023-02-15T07:43:00.208Z,21.27
2023-02-15T07:45:28.231Z,25.75
2023-02-15T07:47:55.475Z,23.25
2023-02-15T07:50:27.256Z,20.13
2023-02-15T07:52:54.165Z,27.00
2023-02-15T07:55:21.689Z,27.70
2023-02-15T07:57:51.465Z,28.17
2023-02-15T08:00:26.304Z,26.30
2023-02-15T08:03:22.239Z,32.45
2023-02-15T08:05:51.242Z,30.42
2023-02-15T08:08:33.542Z,24.38
2023-02-15T08:11:33.639Z,24.70
2023-02-15T08:14:10.564Z,21.52
2023-02-15T08:16:40.477Z,23.25
2023-02-15T08:19:25.548Z,20.52
2023-02-15T08:22:07.281Z,18.40
2023-02-15T08:24:40.813Z,17.33
2023-02-15T08:27:09.547Z,18.35
2023-02-15T08:29:38.952Z,18.27
2023-02-15T08:32:10.051Z,17.63
2023-02-15T08:34:40.797Z,16.92
2023-02-15T08:37:07.683Z,16.83
2023-02-15T08:39:36.858Z,15.32
2023-02-15T08:42:04.116Z,14.02
2023-02-15T08:47:03.685Z,14.35
2023-02-15T08:49:31.123Z,14.43
2023-02-15T08:54:24.992Z,13.88
2023-02-15T08:56:51.925Z,12.27
2023-02-15T08:59:21.187Z,13.75
2023-02-15T09:01:54.659Z,13.55
2023-02-15T09:04:24.776Z,13.80
2023-02-15T09:06:53.534Z,13.23
2023-02-15T09:09:21.175Z,13.38
2023-02-15T09:11:57.780Z,13.27
2023-02-15T09:14:29.480Z,13.23
2023-02-15T09:16:56.862Z,14.13
2023-02-15T09:19:26.486Z,13.88
2023-02-15T09:21:54.173Z,13.95
2023-02-15T09:24:21.077Z,14.50
2023-02-15T09:26:51.724Z,13.02
2023-02-15T09:29:21.240Z,13.45
2023-02-15T09:31:52.200Z,13.73
2023-02-15T09:34:23.068Z,12.85
2023-02-15T09:36:50.903Z,12.73
2023-02-15T09:39:27.908Z,13.02
2023-02-15T09:42:41.978Z,13.30
2023-02-15T09:45:33.693Z,14.60
2023-02-15T09:48:38.224Z,13.60
2023-02-15T09:51:28.922Z,15.10
2023-02-15T09:54:30.553Z,14.00
2023-02-15T09:57:07.191Z,13.38
2023-02-15T09:59:52.460Z,15.07
2023-02-15T10:02:39.744Z,16.02
2023-02-15T10:05:19.617Z,14.70
2023-02-15T10:08:00.951Z,12.30
2023-02-15T10:10:55.241Z,12.60
2023-02-15T10:13:38.096Z,11.95
2023-02-15T10:16:32.463Z,10.95
2023-02-15T10:19:28.672Z,12.48
2023-02-15T10:22:33.845Z,12.95
2023-02-15T10:25:25.513Z,11.60
2023-02-15T10:27:52.762Z,12.02
2023-02-15T10:33:03.613Z,11.80
2023-02-15T10:36:04.780Z,10.93
2023-02-15T10:38:51.373Z,10.10
2023-02-15T10:41:41.814Z,9.82
2023-02-15T10:44:36.309Z,9.65
2023-02-15T10:47:25.411Z,8.52
2023-02-15T10:50:12.929Z,8.63
2023-02-15T10:52:45.674Z,6.97
2023-02-15T10:55:15.818Z,6.70
2023-02-15T10:57:59.735Z,6.25
2023-02-15T11:00:43.105Z,5.55
2023-02-15T11:03:19.713Z,6.32
2023-02-15T11:06:13.256Z,6.55
2023-02-15T11:08:47.353Z,6.70
2023-02-15T11:11:28.644Z,6.82
2023-02-15T11:14:04.070Z,7.07
2023-02-15T11:16:33.518Z,7.72
2023-02-15T11:19:33.134Z,7.35
2023-02-15T11:22:03.754Z,8.50
2023-02-15T11:24:35.719Z,7.90
2023-02-15T11:27:18.134Z,7.90
2023-02-15T11:30:04.832Z,8.13
2023-02-15T11:32:51.264Z,8.52
2023-02-15T11:35:23.121Z,8.25
2023-02-15T11:37:51.907Z,7.88
2023-02-15T11:40:50.485Z,8.52
2023-02-15T11:43:20.491Z,8.85
2023-02-15T11:45:47.586Z,8.45
2023-02-15T11:48:16.174Z,7.15
2023-02-15T11:50:45.234Z,7.57
2023-02-15T11:53:20.110Z,7.35
2023-02-15T11:55:51.985Z,7.68
2023-02-15T11:58:25.047Z,8.75
2023-02-15T12:01:25.774Z,9.40
2023-02-15T12:04:02.145Z,7.47
2023-02-15T12:06:44.733Z,7.80
2023-02-15T12:09:45.543Z,11.45
2023-02-15T12:12:34.854Z,17.98
2023-02-15T12:15:04.935Z,9.82
2023-02-15T12:17:39.632Z,7.32
2023-02-15T12:20:28.747Z,7.75
2023-02-15T12:25:39.512Z,9.07
2023-02-15T12:28:35.414Z,7.35
2023-02-15T12:31:27.915Z,6.78
2023-02-15T12:34:00.575Z,7.28
2023-02-15T12:36:45.371Z,6.90
2023-02-15T12:39:20.643Z,7.20
2023-02-15T12:41:58.796Z,6.78
2023-02-15T12:44:34.578Z,7.05
2023-02-15T12:47:03.078Z,7.00
2023-02-15T12:49:34.839Z,6.78
2023-02-15T12:52:07.838Z,6.82
2023-02-15T12:54:39.549Z,6.45
2023-02-15T12:57:28.172Z,6.38
2023-02-15T13:00:25.880Z,6.25
2023-02-15T13:02:57.834Z,5.70
2023-02-15T13:05:34.522Z,5.72
2023-02-15T13:08:17.924Z,5.00
2023-02-15T13:11:13.894Z,5.78
2023-02-15T13:14:00.090Z,6.38
2023-02-15T13:16:36.292Z,6.03
2023-02-15T13:19:28.688Z,6.95
2023-02-15T13:21:57.582Z,6.40
2023-02-15T13:24:35.945Z,6.60
2023-02-15T13:27:15.400Z,6.60
2023-02-15T13:29:58.474Z,7.30
2023-02-15T13:32:34.791Z,7.03
2023-02-15T13:35:06.087Z,5.95
2023-02-15T13:37:45.143Z,4.97
2023-02-15T13:40:35.516Z,5.38
2023-02-15T13:43:26.877Z,5.15
2023-02-15T13:46:03.389Z,4.90
2023-02-15T13:48:51.410Z,4.88
2023-02-15T13:51:46.246Z,5.50
2023-02-15T13:54:29.193Z,5.40
2023-02-15T13:57:14.986Z,5.68
2023-02-15T13:59:57.423Z,6.28
2023-02-15T14:03:01.895Z,6.57
2023-02-15T14:05:50.429Z,7.25
2023-02-15T14:08:44.416Z,7.70
2023-02-15T14:11:23.692Z,7.13
2023-02-15T14:14:09.112Z,7.70
2023-02-15T14:17:07.842Z,7.38
2023-02-15T14:19:51.105Z,7.85
2023-02-15T14:22:42.632Z,8.30
2023-02-15T14:25:57.454Z,8.15
2023-02-15T14:28:35.167Z,7.50
2023-02-15T14:31:06.692Z,8.43
2023-02-15T14:33:44.269Z,8.13
2023-02-15T14:36:17.773Z,8.15
2023-02-15T14:39:27.676Z,7.72
2023-02-15T14:42:05.709Z,7.35
2023-02-15T14:44:44.328Z,7.63
2023-02-15T14:47:25.979Z,7.45
2023-02-15T14:49:52.952Z,7.70
2023-02-15T14:52:19.992Z,6.55
2023-02-15T14:54:46.827Z,7.18
2023-02-15T14:57:15.894Z,7.80
2023-02-15T14:59:44.808Z,8.05
2023-02-15T15:02:41.550Z,8.00
2023-02-15T15:07:54.213Z,7.72
2023-02-15T15:10:21.625Z,8.07
2023-02-15T15:12:49.401Z,7.38
2023-02-15T15:15:28.535Z,7.90
2023-02-15T15:17:55.630Z,7.15
2023-02-15T15:20:41.841Z,7.05
2023-02-15T15:23:19.176Z,7.50
2023-02-15T15:25:50.051Z,7.20
2023-02-15T15:28:52.304Z,8.60
2023-02-15T15:31:37.295Z,7.28
2023-02-15T15:34:26.958Z,7.70
2023-02-15T15:37:37.319Z,7.60
2023-02-15T15:40:25.549Z,7.47
2023-02-15T15:43:12.716Z,7.13
2023-02-15T15:46:03.651Z,7.00
2023-02-15T15:48:34.575Z,5.60
2023-02-15T15:51:06.794Z,5.70
2023-02-15T15:53:43.398Z,6.28
2023-02-15T15:56:18.766Z,5.88
2023-02-15T15:58:55.545Z,5.80
2023-02-15T16:01:31.543Z,6.03
2023-02-15T16:04:00.074Z,6.10
2023-02-15T16:06:40.700Z,9.35
2023-02-15T16:09:21.421Z,6.07
2023-02-15T16:12:06.269Z,6.10
2023-02-15T16:14:37.788Z,6.18
2023-02-15T16:17:15.282Z,6.10
2023-02-15T16:19:45.231Z,6.35
2023-02-15T16:22:17.482Z,5.95
2023-02-15T16:25:11.935Z,6.65
2023-02-15T16:27:39.020Z,6.95
2023-02-15T16:30:24.631Z,7.25
2023-02-15T16:33:21.146Z,6.80
2023-02-15T16:36:00.050Z,6.45
2023-02-15T16:38:48.109Z,5.90
2023-02-15T16:41:20.881Z,6.30
2023-02-15T16:43:55.163Z,6.88
2023-02-15T16:46:22.142Z,6.03
2023-02-15T16:48:55.161Z,7.55
2023-02-15T16:51:28.730Z,8.57
2023-02-15T16:53:57.826Z,8.68
2023-02-15T16:56:33.562Z,7.07
2023-02-15T16:59:06.573Z,17.30
2023-02-15T17:01:35.283Z,7.97
2023-02-15T17:04:13.731Z,7.82
2023-02-15T17:06:42.915Z,6.90
2023-02-15T17:09:23.328Z,6.20
2023-02-15T17:11:50.230Z,7.35
2023-02-15T17:14:24.627Z,7.30
2023-02-15T17:16:59.800Z,8.13
2023-02-15T17:19:31.502Z,7.60
2023-02-15T17:22:08.049Z,7.88
2023-02-15T17:24:36.429Z,8.20
2023-02-15T17:27:09.322Z,10.52
2023-02-15T17:29:43.892Z,11.52
2023-02-15T17:32:34.195Z,10.07
2023-02-15T17:35:09.532Z,8.93
2023-02-15T17:37:39.541Z,9.63
2023-02-15T17:40:25.992Z,10.80
2023-02-15T17:42:53.539Z,9.95
2023-02-15T17:45:21.966Z,10.50
2023-02-15T17:47:53.750Z,8.52
2023-02-15T17:50:26.833Z,8.50
2023-02-15T17:52:59.259Z,8.02
2023-02-15T17:55:35.794Z,9.13
2023-02-15T17:58:04.949Z,6.78
2023-02-15T18:00:57.846Z,7.28
2023-02-15T18:03:48.075Z,7.47
2023-02-15T18:06:35.579Z,7.22
2023-02-15T18:09:21.043Z,7.07
2023-02-15T18:11:50.671Z,8.55
2023-02-15T18:16:52.317Z,9.82
2023-02-15T18:19:26.170Z,8.80
2023-02-15T18:21:55.652Z,8.70
2023-02-15T18:24:25.308Z,7.03
2023-02-15T18:26:55.835Z,6.75
2023-02-15T18:29:22.767Z,6.20
2023-02-15T18:31:53.935Z,6.25
2023-02-15T18:34:34.626Z,6.70
2023-02-15T18:37:06.559Z,6.15
2023-02-15T18:39:48.402Z,6.70
2023-02-15T18:42:36.064Z,7.85
2023-02-15T18:45:24.999Z,10.68
2023-02-15T18:47:51.993Z,8.90
2023-02-15T18:50:24.265Z,12.63
2023-02-15T18:52:51.625Z,15.68
2023-02-15T18:55:28.998Z,13.90
2023-02-15T18:57:58.772Z,11.48
2023-02-15T19:00:35.464Z,12.75
2023-02-15T19:03:05.356Z,12.88
2023-02-15T19:05:33.511Z,11.52
2023-02-15T19:08:03.243Z,11.45
2023-02-15T19:10:33.013Z,11.32
2023-02-15T19:13:02.160Z,11.38
2023-02-15T19:15:30.550Z,12.68
2023-02-15T19:17:59.811Z,12.23
2023-02-15T19:20:49.586Z,18.65
2023-02-15T19:23:24.389Z,15.48
2023-02-15T19:25:54.651Z,15.75
2023-02-15T19:28:30.271Z,11.57
2023-02-15T19:30:57.400Z,11.70
2023-02-15T19:33:26.843Z,12.93
2023-02-15T19:36:17.666Z,20.58
2023-02-15T19:38:49.624Z,27.63
2023-02-15T19:41:22.392Z,28.23
2023-02-15T19:43:53.365Z,27.20
2023-02-15T19:46:21.761Z,22.17
2023-02-15T19:48:53.470Z,20.15
2023-02-15T19:51:29.112Z,19.42
2023-02-15T19:53:57.814Z,16.40
2023-02-15T19:56:24.985Z,16.83
2023-02-15T19:58:53.067Z,19.00
2023-02-15T20:01:20.054Z,17.73
2023-02-15T20:03:51.274Z,21.90
2023-02-15T20:06:23.082Z,21.17
2023-02-15T20:08:51.148Z,14.48
2023-02-15T20:11:18.114Z,12.98
2023-02-15T20:13:47.141Z,11.27
2023-02-15T20:16:16.277Z,9.18
2023-02-15T20:18:46.608Z,8.95
2023-02-15T20:21:16.881Z,9.75
2023-02-15T20:23:43.970Z,8.98
2023-02-15T20:26:18.698Z,8.68
2023-02-15T20:28:48.651Z,9.32
2023-02-15T20:31:18.642Z,9.45
2023-02-15T20:33:45.714Z,10.10
2023-02-15T20:36:18.315Z,9.70
2023-02-15T20:38:47.730Z,11.95
2023-02-15T20:44:23.786Z,10.25
2023-02-15T20:46:54.099Z,10.80
2023-02-15T20:49:24.008Z,12.23
2023-02-15T20:51:54.591Z,16.45
2023-02-15T20:54:23.902Z,17.08
2023-02-15T20:56:51.833Z,12.85
2023-02-15T20:59:26.415Z,13.15
2023-02-15T21:02:21.385Z,11.43
2023-02-15T21:04:48.356Z,11.32
2023-02-15T21:07:19.595Z,11.63
2023-02-15T21:09:47.266Z,11.60
2023-02-15T21:12:19.375Z,11.40
2023-02-15T21:14:48.875Z,12.02
2023-02-15T21:17:17.285Z,11.55
2023-02-15T21:19:46.767Z,12.35
2023-02-15T21:22:15.839Z,12.25
2023-02-15T21:24:51.402Z,12.50
2023-02-15T21:27:18.522Z,19.70
2023-02-15T21:29:45.743Z,63.15
2023-02-15T21:34:45.551Z,15.73
2023-02-15T21:37:30.378Z,13.27
2023-02-15T21:39:57.537Z,12.10
2023-02-15T21:42:43.162Z,13.20
2023-02-15T21:45:35.935Z,12.55
2023-02-15T21:48:07.445Z,13.32
2023-02-15T21:50:54.268Z,15.10
2023-02-15T21:53:22.788Z,13.75
2023-02-15T21:55:50.545Z,11.50
2023-02-15T21:58:22.641Z,10.60
2023-02-15T22:00:55.294Z,10.57
2023-02-15T22:03:32.844Z,11.85
2023-02-15T22:05:59.975Z,11.00
2023-02-15T22:08:29.467Z,10.30
2023-02-15T22:10:57.482Z,11.70
2023-02-15T22:13:29.404Z,11.20
2023-02-15T22:16:01.711Z,12.57
2023-02-15T22:18:33.853Z,12.35
2023-02-15T22:21:02.414Z,13.32
2023-02-15T22:23:34.341Z,15.95
2023-02-15T22:26:27.076Z,15.20
2023-02-15T22:28:57.207Z,15.45
2023-02-15T22:31:28.746Z,13.57
2023-02-15T22:33:55.766Z,14.10
2023-02-15T22:36:30.692Z,14.57
2023-02-15T22:38:58.194Z,16.20
2023-02-15T22:41:29.022Z,16.52
2023-02-15T22:43:56.976Z,14.93
2023-02-15T22:46:25.692Z,15.65
2023-02-15T22:48:53.270Z,14.85
2023-02-15T22:51:23.583Z,16.00
2023-02-15T22:53:52.318Z,17.70
2023-02-15T22:56:34.220Z,18.02
2023-02-15T22:59:04.601Z,16.20
2023-02-15T23:01:34.822Z,17.05
2023-02-15T23:04:04.606Z,15.02
2023-02-15T23:06:32.713Z,15.88
2023-02-15T23:09:00.879Z,15.77
2023-02-15T23:11:30.962Z,15.40
2023-02-15T23:13:57.853Z,15.55
2023-02-15T23:16:24.802Z,15.60
2023-02-15T23:18:52.207Z,16.02
2023-02-15T23:21:31.108Z,15.95
2023-02-15T23:24:13.632Z,16.65
2023-02-15T23:26:40.580Z,15.02
2023-02-15T23:29:15.106Z,16.42
2023-02-15T23:31:45.267Z,14.73
2023-02-15T23:34:26.438Z,16.08
2023-02-15T23:36:56.695Z,16.40
2023-02-15T23:39:46.708Z,14.82
2023-02-15T23:42:17.328Z,15.18
2023-02-15T23:44:45.724Z,14.60
2023-02-15T23:47:49.879Z,13.73
2023-02-15T23:50:29.414Z,13.52
2023-02-15T23:52:56.829Z,14.55
2023-02-15T23:55:36.129Z,15.20
2023-02-15T23:58:05.082Z,14.82
